In Rescue
 
Open Full Screen Window  High Contrast Mode
Wind Gusting 16 knots
11
May 20, 2019 3:28 PM EDT
Weather Information
Wind Direction
  360 °
Wind Speed
  11 kt (13 mph)
Wind Gust
  16 kt (18 mph)
Altimeter
30.05 in
Visibility
10 SM
Temperature
10° C
50° F
Dewpoint
04° C
39° F
Humidity
67%
Sky Condition
Overcast @ 3,000 ft
Broken @ 2,400 ft
MVFR

METAR KFFX 201928Z AUTO 36011G16KT 10SM BKN024 OVC030 10/04 A3005 RMK AO2 T01000040

FAA Disclaimer: The data displayed is for advisory purposes only and is not to be used for flight planning or operations.